Time;durP1;ratioP1;P1;durP2;ratioP2;P2;SDS_P1;SDS_P2;PMS_P1;PMS_P2;Temp;Humidity;BMP_temperature;BMP_pressure;BME280_temperature;BME280_humidity;BME280_pressure;Samples;Min_cycle;Max_cycle;Signal;HPM_P1;HPM_P2
2022/02/05 00:00:39;;;;;;;0.30;0.30;;;5.30;98.40;;;;;;5033219;28;20221;-67
2022/02/05 00:11:13;;;;;;;0.32;0.32;;;4.40;97.50;;;;;;5037353;28;20750;-68
2022/02/05 00:40:31;;;;;;;0.40;0.40;;;4.50;96.60;;;;;;5036890;28;20283;-68
2022/02/05 00:42:56;;;;;;;0.40;0.40;;;4.50;96.60;;;;;;5037204;28;20524;-68
2022/02/05 00:45:22;;;;;;;0.30;0.30;;;4.50;96.40;;;;;;5036906;28;20198;-67
2022/02/05 00:47:48;;;;;;;0.40;0.40;;;4.30;96.30;;;;;;5037047;28;20202;-68
2022/02/05 00:50:21;;;;;;;0.40;0.40;;;4.20;96.30;;;;;;5036476;28;20625;-68
2022/02/05 00:52:58;;;;;;;0.40;0.40;;;4.10;96.10;;;;;;5036896;28;20183;-67
2022/02/05 00:55:27;;;;;;;0.38;0.38;;;4.10;96.00;;;;;;5036657;28;20186;-67
2022/02/05 00:57:53;;;;;;;0.30;0.30;;;4.10;95.70;;;;;;5036716;28;20178;-68
2022/02/05 01:00:19;;;;;;;0.30;0.30;;;4.00;95.60;;;;;;5036278;28;20199;-68
2022/02/05 01:02:46;;;;;;;0.40;0.40;;;4.00;95.20;;;;;;5036491;28;20223;-67
2022/02/05 01:05:12;;;;;;;0.40;0.40;;;4.00;95.00;;;;;;5036334;28;20206;-68
2022/02/05 01:07:38;;;;;;;0.40;0.40;;;4.00;95.10;;;;;;5036460;28;20171;-68
2022/02/05 01:10:05;;;;;;;0.30;0.30;;;3.90;94.90;;;;;;5036382;28;20232;-67
2022/02/05 01:12:33;;;;;;;0.30;0.30;;;3.90;95.20;;;;;;5036379;28;20584;-68
2022/02/05 01:15:01;;;;;;;0.30;0.30;;;3.80;95.20;;;;;;5036420;28;20252;-67
2022/02/05 01:17:34;;;;;;;0.30;0.30;;;3.70;94.90;;;;;;5035626;28;20196;-68
2022/02/05 01:20:32;;;;;;;0.30;0.30;;;3.50;94.50;;;;;;5036089;28;20244;-67
2022/02/05 01:23:00;;;;;;;0.30;0.30;;;3.30;94.90;;;;;;5035871;28;20176;-67
2022/02/05 01:25:31;;;;;;;0.30;0.30;;;3.30;94.70;;;;;;5035963;28;20196;-68
2022/02/05 01:28:04;;;;;;;0.30;0.30;;;3.40;95.10;;;;;;5036268;28;20219;-67
2022/02/05 01:30:34;;;;;;;0.40;0.40;;;3.40;95.30;;;;;;5035933;28;20541;-67
2022/02/05 01:33:33;;;;;;;0.40;0.40;;;3.40;95.20;;;;;;5036004;28;20185;-67
2022/02/05 01:50:16;;;;;;;0.40;0.40;;;3.20;95.50;;;;;;5035481;28;20288;-68
2022/02/05 01:55:28;;;;;;;0.30;0.30;;;3.00;95.50;;;;;;5035765;28;20669;-67
2022/02/05 01:58:11;;;;;;;0.38;0.38;;;3.00;95.80;;;;;;5035755;28;20209;-67
2022/02/05 02:21:30;;;;;;;0.40;0.40;;;2.90;97.20;;;;;;5034949;28;20168;-67
2022/02/05 02:24:15;;;;;;;0.40;0.40;;;3.00;96.80;;;;;;5035133;28;20271;-68
2022/02/05 02:26:59;;;;;;;0.30;0.30;;;3.00;96.70;;;;;;5035065;28;20158;-67
2022/02/05 02:29:41;;;;;;;0.35;0.35;;;3.00;97.10;;;;;;5034161;28;20164;-67
2022/02/05 02:32:07;;;;;;;0.30;0.30;;;3.00;97.40;;;;;;5035014;28;20172;-68
2022/02/05 02:34:39;;;;;;;0.35;0.35;;;2.90;97.50;;;;;;5034608;28;20210;-67
2022/02/05 02:37:17;;;;;;;0.30;0.30;;;2.90;97.50;;;;;;5035038;28;20177;-67
2022/02/05 02:42:35;;;;;;;0.30;0.30;;;2.70;97.80;;;;;;5006262;28;20203;-67
2022/02/05 02:45:00;;;;;;;0.30;0.30;;;2.60;97.90;;;;;;5034507;28;20195;-67
2022/02/05 02:47:26;;;;;;;0.30;0.30;;;2.60;97.90;;;;;;5034609;28;20532;-67
2022/02/05 02:50:07;;;;;;;0.30;0.30;;;2.50;97.90;;;;;;5034436;28;20183;-67
2022/02/05 02:56:30;;;;;;;0.30;0.30;;;2.20;98.10;;;;;;5034771;28;20295;-67
2022/02/05 02:58:25;;;;;;;0.40;0.40;;;2.10;98.30;;;;;;5034067;28;20179;-67
2022/02/05 03:00:55;;;;;;;0.30;0.30;;;2.00;98.40;;;;;;5034349;28;20293;-67
2022/02/05 03:03:21;;;;;;;0.30;0.30;;;1.80;98.70;;;;;;5034249;28;20159;-67
2022/02/05 03:05:47;;;;;;;0.30;0.30;;;1.80;98.90;;;;;;5034106;28;20200;-67
2022/02/05 03:08:13;;;;;;;0.30;0.30;;;1.80;99.00;;;;;;5034029;28;20203;-67
2022/02/05 03:10:38;;;;;;;0.30;0.30;;;1.80;99.10;;;;;;5034205;28;20447;-67
2022/02/05 03:13:04;;;;;;;0.37;0.37;;;1.80;99.00;;;;;;5034240;28;20575;-67
2022/02/05 03:15:39;;;;;;;0.30;0.30;;;1.80;99.00;;;;;;5033907;28;20203;-67
2022/02/05 03:18:26;;;;;;;0.30;0.30;;;1.80;98.90;;;;;;5034193;28;20174;-67
2022/02/05 03:20:52;;;;;;;0.40;0.40;;;1.80;98.90;;;;;;5032702;28;20216;-68
2022/02/05 03:23:17;;;;;;;0.33;0.33;;;1.70;98.80;;;;;;5034014;28;20246;-67
2022/02/05 03:25:43;;;;;;;0.30;0.30;;;1.60;98.80;;;;;;5033750;28;20194;-67
2022/02/05 03:28:08;;;;;;;0.30;0.30;;;1.60;98.90;;;;;;5033985;28;20175;-67
2022/02/05 03:30:34;;;;;;;0.30;0.30;;;1.50;99.00;;;;;;5033590;28;20538;-67
2022/02/05 03:33:00;;;;;;;0.40;0.40;;;1.50;99.00;;;;;;5033796;28;20197;-67
2022/02/05 03:35:27;;;;;;;0.30;0.30;;;1.40;98.90;;;;;;5033876;28;20594;-67
2022/02/05 03:37:53;;;;;;;0.30;0.30;;;1.40;98.90;;;;;;5033791;28;20178;-67
2022/02/05 03:40:19;;;;;;;0.40;0.40;;;1.40;99.00;;;;;;5033212;28;20198;-67
2022/02/05 03:42:44;;;;;;;0.40;0.40;;;1.40;99.00;;;;;;5033556;28;20953;-67
2022/02/05 03:45:11;;;;;;;0.30;0.30;;;1.40;99.00;;;;;;5033532;28;20722;-67
2022/02/05 03:47:37;;;;;;;0.30;0.30;;;1.30;99.00;;;;;;5033520;28;20606;-68
2022/02/05 03:50:04;;;;;;;0.30;0.30;;;1.30;99.00;;;;;;5033596;28;20629;-67
2022/02/05 03:52:30;;;;;;;0.38;0.38;;;1.30;99.00;;;;;;5032432;28;20178;-67
2022/02/05 03:54:56;;;;;;;0.30;0.30;;;1.30;99.10;;;;;;5033590;28;20202;-67
2022/02/05 03:57:22;;;;;;;0.30;0.30;;;1.20;99.00;;;;;;5033638;28;20483;-67
2022/02/05 03:59:49;;;;;;;0.30;0.30;;;1.20;99.00;;;;;;5033228;28;20260;-67
2022/02/05 04:02:14;;;;;;;0.30;0.30;;;1.20;99.00;;;;;;5033607;28;20254;-67
2022/02/05 04:04:40;;;;;;;0.30;0.30;;;1.20;99.00;;;;;;5033291;28;20344;-67
2022/02/05 04:07:06;;;;;;;0.30;0.30;;;1.20;99.10;;;;;;5033469;28;20167;-67
2022/02/05 04:09:39;;;;;;;0.30;0.30;;;1.10;99.10;;;;;;5031896;28;20181;-67
2022/02/05 04:17:28;;;;;;;0.30;0.30;;;1.00;99.10;;;;;;5033718;28;20197;-67
2022/02/05 04:19:53;;;;;;;0.30;0.30;;;1.00;99.20;;;;;;5033033;28;20198;-67
2022/02/05 04:22:19;;;;;;;0.30;0.30;;;1.00;99.20;;;;;;5033213;28;20221;-67
2022/02/05 04:24:45;;;;;;;0.40;0.40;;;0.80;99.10;;;;;;5031874;28;20191;-67
2022/02/05 04:27:10;;;;;;;0.37;0.37;;;0.80;99.30;;;;;;5033261;28;20250;-67
2022/02/05 04:29:37;;;;;;;0.30;0.30;;;0.80;99.70;;;;;;5033072;28;20173;-67
2022/02/05 04:32:04;;;;;;;0.30;0.30;;;0.70;99.40;;;;;;5033242;28;20170;-67
2022/02/05 04:34:29;;;;;;;0.40;0.40;;;0.80;99.40;;;;;;5032803;28;20210;-67
2022/02/05 04:36:56;;;;;;;0.40;0.40;;;0.80;99.30;;;;;;5033232;28;20201;-67
2022/02/05 04:39:22;;;;;;;0.90;0.90;;;0.80;99.20;;;;;;5032845;28;20203;-67
2022/02/05 04:41:54;;;;;;;0.40;0.40;;;0.80;99.20;;;;;;5033138;28;20167;-67
2022/02/05 04:44:44;;;;;;;0.40;0.40;;;0.80;99.10;;;;;;5033234;28;20187;-67
2022/02/05 04:55:06;;;;;;;0.30;0.30;;;0.70;99.10;;;;;;5036918;28;20289;-67
2022/02/05 05:02:59;;;;;;;0.40;0.40;;;0.70;99.10;;;;;;5036597;28;20194;-67
2022/02/05 05:11:18;;;;;;;0.30;0.30;;;0.70;99.00;;;;;;5036636;28;20183;-67
2022/02/05 05:21:22;;;;;;;0.40;0.40;;;0.50;99.00;;;;;;5036622;28;20674;-67
2022/02/05 05:23:48;;;;;;;0.40;0.40;;;0.50;99.00;;;;;;5036496;28;20171;-67
2022/02/05 05:26:14;;;;;;;0.30;0.30;;;0.50;99.10;;;;;;5036064;28;20260;-68
2022/02/05 05:28:40;;;;;;;0.40;0.40;;;0.50;98.90;;;;;;5036015;28;20254;-67
2022/02/05 05:31:05;;;;;;;0.40;0.40;;;0.50;99.00;;;;;;5035936;28;20259;-67
2022/02/05 05:33:31;;;;;;;0.40;0.40;;;0.50;98.90;;;;;;5036012;28;20430;-67
2022/02/05 05:35:57;;;;;;;0.40;0.40;;;0.50;98.90;;;;;;5035841;28;20362;-67
2022/02/05 05:38:22;;;;;;;0.40;0.40;;;0.50;98.80;;;;;;5035925;28;20167;-67
2022/02/05 05:40:48;;;;;;;0.40;0.40;;;0.40;98.80;;;;;;5035738;28;20202;-67
2022/02/05 05:43:24;;;;;;;0.47;0.47;;;0.20;99.10;;;;;;5035764;28;20401;-67
2022/02/05 05:51:15;;;;;;;0.45;0.45;;;0.40;99.10;;;;;;5035752;28;20260;-67
2022/02/05 05:53:41;;;;;;;0.40;0.40;;;0.40;99.00;;;;;;5035714;28;20202;-67
2022/02/05 05:56:07;;;;;;;0.30;0.30;;;0.40;99.00;;;;;;5035772;28;20249;-67
2022/02/05 05:58:33;;;;;;;0.40;0.40;;;0.30;98.90;;;;;;5034013;28;20174;-67
2022/02/05 06:00:58;;;;;;;0.40;0.40;;;0.30;98.90;;;;;;5035477;28;20658;-67
2022/02/05 06:03:24;;;;;;;0.40;0.40;;;0.30;98.80;;;;;;5035164;28;20198;-67
2022/02/05 06:05:50;;;;;;;0.30;0.30;;;0.30;98.80;;;;;;5035257;28;20187;-67
2022/02/05 06:08:16;;;;;;;0.43;0.43;;;0.30;98.70;;;;;;5035261;28;20488;-67
2022/02/05 06:10:43;;;;;;;0.50;0.50;;;0.30;98.70;;;;;;5035338;28;20163;-67
2022/02/05 06:13:10;;;;;;;0.30;0.30;;;0.30;98.60;;;;;;5035212;28;20171;-67
2022/02/05 06:15:41;;;;;;;0.50;0.50;;;0.30;98.60;;;;;;5035008;28;20583;-67
2022/02/05 06:18:07;;;;;;;0.40;0.40;;;0.30;98.70;;;;;;5035259;28;20523;-67
2022/02/05 06:20:33;;;;;;;0.40;0.40;;;0.30;98.70;;;;;;5033710;28;20202;-67
2022/02/05 06:22:59;;;;;;;0.30;0.30;;;0.30;98.70;;;;;;5035174;28;20703;-67
2022/02/05 06:25:25;;;;;;;0.40;0.40;;;0.30;98.70;;;;;;5034911;28;20240;-67
2022/02/05 06:27:50;;;;;;;0.40;0.40;;;0.30;98.60;;;;;;5034950;28;20484;-67
2022/02/05 06:30:16;;;;;;;0.50;0.50;;;0.20;98.50;;;;;;5033450;28;20410;-67
2022/02/05 06:32:42;;;;;;;0.40;0.40;;;0.20;98.40;;;;;;5034901;28;20202;-68
2022/02/05 06:35:09;;;;;;;0.40;0.40;;;0.20;98.40;;;;;;5034967;28;20436;-67
2022/02/05 06:37:34;;;;;;;0.40;0.40;;;0.10;98.30;;;;;;5034691;28;20220;-67
2022/02/05 06:40:00;;;;;;;0.40;0.40;;;0.00;98.20;;;;;;5034465;28;20562;-67
2022/02/05 06:42:26;;;;;;;0.50;0.50;;;0.00;98.20;;;;;;5033411;28;20194;-67
2022/02/05 06:44:51;;;;;;;0.40;0.40;;;0.00;98.20;;;;;;5034618;28;20233;-67
2022/02/05 06:47:17;;;;;;;0.40;0.40;;;0.00;98.20;;;;;;5034697;28;20167;-67
2022/02/05 06:49:43;;;;;;;0.40;0.40;;;-0.10;98.30;;;;;;5034329;28;20612;-67
2022/02/05 06:52:10;;;;;;;0.43;0.43;;;-0.10;98.40;;;;;;5034570;28;20175;-67
2022/02/05 06:54:36;;;;;;;0.45;0.45;;;-0.10;98.60;;;;;;5034782;28;20191;-67
2022/02/05 06:57:01;;;;;;;0.30;0.30;;;-0.20;98.60;;;;;;5034383;28;20229;-67
2022/02/05 06:59:27;;;;;;;0.40;0.40;;;-0.10;98.60;;;;;;5034184;28;20787;-67
2022/02/05 07:01:53;;;;;;;0.40;0.40;;;-0.10;98.50;;;;;;5034271;28;20772;-67
2022/02/05 07:04:23;;;;;;;0.40;0.40;;;-0.10;98.60;;;;;;5034332;28;20208;-67
2022/02/05 07:06:50;;;;;;;0.40;0.40;;;0.00;98.60;;;;;;5034193;28;20152;-67
2022/02/05 07:09:16;;;;;;;0.40;0.40;;;0.00;98.40;;;;;;5033950;28;20175;-67
2022/02/05 07:11:41;;;;;;;0.40;0.40;;;0.00;98.40;;;;;;5034448;28;20217;-67
2022/02/05 07:14:09;;;;;;;0.30;0.30;;;0.10;98.50;;;;;;5033425;28;20433;-67
2022/02/05 07:16:39;;;;;;;0.40;0.40;;;0.10;98.40;;;;;;5034106;28;20175;-67
2022/02/05 07:19:23;;;;;;;0.30;0.30;;;0.10;98.30;;;;;;5033861;28;20571;-67
2022/02/05 07:21:52;;;;;;;0.40;0.40;;;0.10;98.30;;;;;;5034036;28;20163;-67
2022/02/05 07:29:34;;;;;;;0.32;0.32;;;0.10;98.10;;;;;;5033971;28;20674;-67
2022/02/05 07:32:00;;;;;;;0.40;0.40;;;0.20;98.10;;;;;;5033975;28;20171;-67
2022/02/05 07:34:28;;;;;;;0.40;0.40;;;0.20;98.20;;;;;;5033602;28;20232;-67
2022/02/05 07:37:02;;;;;;;0.40;0.40;;;0.20;98.20;;;;;;5033749;28;20470;-67
2022/02/05 07:39:44;;;;;;;0.32;0.32;;;0.30;98.10;;;;;;5033592;28;20187;-67
2022/02/05 07:42:09;;;;;;;0.30;0.30;;;0.30;98.00;;;;;;5033705;28;20636;-67
2022/02/05 07:44:35;;;;;;;0.30;0.30;;;0.40;98.10;;;;;;5032248;28;20202;-67
2022/02/05 07:47:01;;;;;;;0.47;0.47;;;0.40;97.90;;;;;;5034004;28;20162;-67
2022/02/05 07:49:35;;;;;;;0.40;0.40;;;0.40;97.80;;;;;;5033721;28;20458;-67
2022/02/05 07:52:00;;;;;;;0.30;0.30;;;0.40;97.70;;;;;;5033683;28;20241;-67
2022/02/05 07:54:26;;;;;;;0.30;0.30;;;0.40;97.70;;;;;;5033520;28;20301;-67
2022/02/05 07:56:52;;;;;;;0.30;0.30;;;0.40;97.70;;;;;;5033619;28;20648;-67
2022/02/05 07:59:19;;;;;;;0.30;0.30;;;0.50;99.10;;;;;;5033393;28;20273;-67
2022/02/05 08:01:45;;;;;;;0.30;0.30;;;1.40;99.90;;;;;;5033429;28;20249;-67
2022/02/05 08:04:11;;;;;;;0.30;0.30;;;2.50;99.90;;;;;;5033430;28;20231;-67
2022/02/05 08:06:37;;;;;;;0.30;0.30;;;3.80;99.70;;;;;;5033474;28;20197;-68
2022/02/05 08:09:13;;;;;;;0.67;0.67;;;5.00;96.50;;;;;;5033244;28;20636;-67
2022/02/05 08:11:43;;;;;;;0.32;0.32;;;5.90;93.20;;;;;;5033309;28;20405;-68
2022/02/05 08:14:10;;;;;;;0.40;0.40;;;6.70;87.60;;;;;;5033466;28;20273;-67
2022/02/05 08:19:05;;;;;;;0.40;0.40;;;8.40;76.50;;;;;;5033057;28;20590;-68
2022/02/05 08:21:30;;;;;;;0.40;0.40;;;9.50;68.90;;;;;;5033434;28;20182;-68
2022/02/05 08:23:56;;;;;;;0.30;0.30;;;10.20;62.20;;;;;;5033575;28;20422;-67
2022/02/05 08:26:27;;;;;;;0.40;0.40;;;10.90;59.40;;;;;;5033208;28;20547;-67
2022/02/05 08:28:57;;;;;;;0.40;0.40;;;10.90;57.40;;;;;;5035693;28;20667;-68
2022/02/05 08:31:23;;;;;;;0.30;0.30;;;11.10;57.20;;;;;;5037158;28;20185;-68
2022/02/05 08:33:49;;;;;;;0.30;0.30;;;11.10;56.20;;;;;;5036996;28;20182;-68
2022/02/05 08:36:21;;;;;;;0.30;0.30;;;11.50;54.80;;;;;;5035710;28;20648;-67
2022/02/05 08:38:50;;;;;;;0.40;0.40;;;12.30;53.30;;;;;;5037027;28;20167;-68
2022/02/05 08:41:15;;;;;;;0.30;0.30;;;13.10;51.70;;;;;;5037286;28;20263;-67
2022/02/05 08:43:41;;;;;;;0.30;0.30;;;13.60;51.00;;;;;;5036877;28;20206;-68
2022/02/05 08:46:07;;;;;;;0.30;0.30;;;13.80;49.70;;;;;;5036908;28;20178;-68
2022/02/05 08:48:33;;;;;;;0.30;0.30;;;14.10;48.00;;;;;;5036586;28;20417;-68
2022/02/05 08:50:58;;;;;;;0.50;0.50;;;14.20;47.50;;;;;;5036897;28;20171;-67
2022/02/05 08:53:24;;;;;;;0.30;0.30;;;13.80;46.90;;;;;;5035443;28;20629;-68
2022/02/05 08:55:52;;;;;;;0.30;0.30;;;13.10;47.50;;;;;;5036654;28;20187;-68
2022/02/05 08:58:20;;;;;;;0.30;0.30;;;13.10;49.20;;;;;;5035319;28;20601;-68
2022/02/05 09:00:54;;;;;;;0.30;0.30;;;13.50;48.10;;;;;;5036622;28;20273;-68
2022/02/05 09:03:28;;;;;;;0.30;0.30;;;14.00;48.10;;;;;;5036584;28;20590;-67
2022/02/05 09:05:54;;;;;;;0.30;0.30;;;14.10;47.50;;;;;;5036288;28;20183;-68
2022/02/05 09:11:15;;;;;;;0.30;0.30;;;13.50;48.10;;;;;;5036430;28;20206;-68
2022/02/05 09:13:39;;;;;;;0.30;0.30;;;13.90;47.80;;;;;;5035948;28;20652;-68
2022/02/05 09:16:06;;;;;;;0.30;0.30;;;14.00;47.20;;;;;;5036300;28;20578;-68
2022/02/05 09:18:33;;;;;;;0.32;0.32;;;14.50;46.90;;;;;;5036139;28;20170;-68
2022/02/05 09:20:58;;;;;;;0.30;0.30;;;15.00;45.60;;;;;;5034870;28;20676;-68
2022/02/05 09:23:24;;;;;;;0.40;0.40;;;16.00;45.10;;;;;;5036264;28;20451;-68
2022/02/05 09:25:50;;;;;;;0.40;0.40;;;16.70;43.10;;;;;;5036020;28;20420;-68
2022/02/05 09:28:16;;;;;;;0.30;0.30;;;17.40;42.40;;;;;;5035804;28;20242;-68
2022/02/05 09:31:02;;;;;;;0.30;0.30;;;17.50;41.10;;;;;;5036088;28;20171;-68
2022/02/05 09:33:28;;;;;;;0.40;0.40;;;17.00;41.50;;;;;;5036035;28;20433;-68
2022/02/05 09:35:54;;;;;;;0.30;0.30;;;18.00;41.20;;;;;;5035836;28;20934;-68
2022/02/05 09:38:20;;;;;;;0.30;0.30;;;18.40;40.20;;;;;;5035256;28;20399;-68
2022/02/05 09:40:46;;;;;;;0.40;0.40;;;17.50;40.00;;;;;;5035854;28;20193;-68
2022/02/05 09:43:13;;;;;;;0.30;0.30;;;16.90;40.80;;;;;;5035792;28;20564;-67
2022/02/05 09:45:39;;;;;;;0.40;0.40;;;16.70;41.60;;;;;;5035657;28;20422;-68
2022/02/05 09:48:06;;;;;;;0.40;0.40;;;17.40;41.40;;;;;;5035735;28;20398;-68
2022/02/05 09:50:35;;;;;;;0.30;0.30;;;18.10;40.40;;;;;;5035600;28;20402;-68
2022/02/05 09:53:12;;;;;;;0.33;0.33;;;18.10;39.70;;;;;;5035727;28;20434;-68
2022/02/05 09:55:38;;;;;;;0.30;0.30;;;18.40;39.10;;;;;;5034179;28;20424;-68
2022/02/05 09:58:04;;;;;;;0.40;0.40;;;18.70;38.50;;;;;;5035535;28;20449;-68
2022/02/05 10:00:30;;;;;;;0.30;0.30;;;18.70;39.40;;;;;;5035334;28;20968;-69
2022/02/05 10:02:57;;;;;;;0.30;0.30;;;18.80;39.70;;;;;;5035541;28;20534;-68
2022/02/05 10:05:30;;;;;;;0.30;0.30;;;18.00;37.80;;;;;;5035494;28;20458;-68
2022/02/05 10:07:56;;;;;;;0.37;0.37;;;17.30;39.00;;;;;;5035297;28;20390;-68
2022/02/05 10:10:23;;;;;;;0.30;0.30;;;16.70;40.20;;;;;;5033843;28;20437;-68
2022/02/05 10:13:13;;;;;;;0.30;0.30;;;17.30;41.00;;;;;;5035275;28;20463;-67
2022/02/05 10:15:41;;;;;;;0.30;0.30;;;16.90;40.60;;;;;;5035227;28;20528;-68
2022/02/05 10:18:08;;;;;;;0.30;0.30;;;16.10;42.00;;;;;;5035275;28;20432;-68
2022/02/05 10:20:39;;;;;;;0.30;0.30;;;15.80;42.20;;;;;;5034770;28;20484;-67
2022/02/05 10:23:10;;;;;;;0.30;0.30;;;15.20;43.10;;;;;;5035098;28;20522;-68
2022/02/05 10:25:36;;;;;;;0.40;0.40;;;14.70;44.00;;;;;;5034907;28;20806;-68
2022/02/05 10:28:09;;;;;;;0.30;0.30;;;13.90;45.40;;;;;;5034982;28;20398;-68
2022/02/05 10:30:35;;;;;;;0.30;0.30;;;12.90;46.90;;;;;;5034921;28;20442;-68
2022/02/05 10:33:09;;;;;;;0.30;0.30;;;12.30;48.70;;;;;;5034853;28;20211;-68
2022/02/05 10:36:09;;;;;;;0.30;0.30;;;12.20;49.70;;;;;;5034722;28;20594;-68
2022/02/05 10:43:58;;;;;;;0.30;0.30;;;13.10;48.90;;;;;;5035172;28;20252;-68
2022/02/05 10:46:35;;;;;;;0.30;0.30;;;13.50;48.00;;;;;;5033385;28;20965;-68
2022/02/05 10:49:02;;;;;;;0.30;0.30;;;11.90;48.50;;;;;;5033545;28;20209;-67
2022/02/05 10:51:44;;;;;;;0.40;0.40;;;10.60;51.30;;;;;;5034650;28;20559;-67
2022/02/05 10:54:39;;;;;;;0.68;0.68;;;9.90;54.10;;;;;;5034605;28;20601;-67
2022/02/05 10:57:15;;;;;;;0.30;0.30;;;8.80;55.90;;;;;;5034356;28;20216;-67
2022/02/05 11:05:34;;;;;;;0.38;0.38;;;7.10;62.50;;;;;;5034443;28;20206;-67
2022/02/05 11:07:59;;;;;;;0.40;0.40;;;7.00;63.80;;;;;;5034464;28;20176;-68
2022/02/05 11:21:10;;;;;;;0.40;0.40;;;5.30;71.90;;;;;;5033964;28;20241;-67
2022/02/05 11:23:36;;;;;;;0.30;0.30;;;5.00;75.60;;;;;;5033886;28;20587;-67
2022/02/05 11:26:03;;;;;;;0.33;0.33;;;4.90;78.30;;;;;;5032804;28;20194;-68
2022/02/05 11:28:42;;;;;;;0.40;0.40;;;4.80;80.10;;;;;;5033772;28;20167;-68
2022/02/05 11:31:16;;;;;;;0.40;0.40;;;4.90;82.90;;;;;;5033991;28;20171;-67
2022/02/05 11:33:43;;;;;;;0.35;0.35;;;5.30;83.30;;;;;;5033755;28;20186;-67
2022/02/05 11:38:45;;;;;;;0.40;0.40;;;5.60;81.90;;;;;;5033748;28;20721;-67
2022/02/05 11:41:26;;;;;;;0.40;0.40;;;5.80;82.10;;;;;;5033820;28;20252;-68
2022/02/05 11:44:39;;;;;;;0.40;0.40;;;6.20;80.90;;;;;;5033718;28;20225;-68
2022/02/05 11:47:07;;;;;;;0.40;0.40;;;6.60;80.10;;;;;;5011870;28;20183;-68
2022/02/05 11:49:51;;;;;;;0.40;0.40;;;6.80;78.10;;;;;;5030907;28;20275;-68
2022/02/05 11:52:35;;;;;;;0.35;0.35;;;6.60;75.50;;;;;;5033493;28;20253;-68
2022/02/05 11:55:05;;;;;;;0.40;0.40;;;6.80;75.50;;;;;;5032151;28;20198;-68
2022/02/05 11:57:43;;;;;;;0.40;0.40;;;7.20;73.10;;;;;;5033509;28;20176;-67
2022/02/05 12:00:11;;;;;;;0.30;0.30;;;7.50;70.60;;;;;;5033186;28;20556;-68
2022/02/05 12:02:47;;;;;;;0.40;0.40;;;7.90;68.40;;;;;;5033273;28;20172;-68
2022/02/05 12:05:18;;;;;;;0.40;0.40;;;8.30;65.40;;;;;;5033467;28;20199;-67
2022/02/05 12:08:05;;;;;;;0.30;0.30;;;8.90;64.70;;;;;;5033401;28;20166;-67
2022/02/05 12:10:33;;;;;;;0.40;0.40;;;9.10;63.50;;;;;;5033313;28;20171;-68
2022/02/05 12:13:22;;;;;;;0.40;0.40;;;9.20;62.80;;;;;;5033976;28;20232;-68
2022/02/05 12:15:49;;;;;;;0.30;0.30;;;9.10;61.80;;;;;;5033226;28;20665;-67
2022/02/05 12:18:20;;;;;;;0.40;0.40;;;8.70;61.30;;;;;;5033232;28;20540;-67
2022/02/05 12:21:08;;;;;;;0.40;0.40;;;8.70;62.50;;;;;;5033449;28;20215;-68
2022/02/05 12:26:08;;;;;;;0.30;0.30;;;8.80;61.90;;;;;;5033112;28;20580;-68
2022/02/05 12:28:36;;;;;;;0.37;0.37;;;8.90;62.70;;;;;;5033040;28;20174;-68
2022/02/05 12:31:30;;;;;;;0.40;0.40;;;9.00;62.60;;;;;;5033241;28;20167;-67
2022/02/05 12:33:59;;;;;;;0.40;0.40;;;8.90;64.30;;;;;;5030258;28;20224;-68
2022/02/05 12:36:30;;;;;;;0.40;0.40;;;8.80;62.70;;;;;;5033063;28;20177;-68
2022/02/05 12:38:58;;;;;;;0.30;0.30;;;8.60;62.80;;;;;;5032949;28;20208;-67
2022/02/05 12:41:25;;;;;;;0.40;0.40;;;8.50;62.70;;;;;;5033199;28;20195;-67
2022/02/05 12:43:52;;;;;;;0.40;0.40;;;8.20;62.00;;;;;;5033105;28;20206;-67
2022/02/05 12:46:20;;;;;;;0.38;0.38;;;8.00;64.10;;;;;;5032942;28;20196;-68
2022/02/05 12:48:51;;;;;;;0.30;0.30;;;7.60;65.40;;;;;;5033049;28;20251;-68
2022/02/05 12:51:16;;;;;;;0.70;0.70;;;7.40;66.20;;;;;;5033231;28;20180;-67
2022/02/05 12:53:43;;;;;;;0.40;0.40;;;7.10;66.50;;;;;;5032976;28;20657;-67
2022/02/05 12:56:13;;;;;;;0.40;0.40;;;6.80;69.00;;;;;;5032934;28;20265;-68
2022/02/05 12:59:03;;;;;;;0.40;0.40;;;6.40;72.40;;;;;;5032889;28;20171;-67
2022/02/05 13:01:37;;;;;;;0.40;0.40;;;6.30;71.20;;;;;;5032870;28;20175;-67
2022/02/05 13:04:13;;;;;;;0.40;0.40;;;6.10;72.50;;;;;;5033122;28;20205;-68
2022/02/05 13:06:40;;;;;;;0.40;0.40;;;5.90;76.90;;;;;;5032864;28;20166;-67
2022/02/05 13:09:24;;;;;;;0.40;0.40;;;5.80;79.80;;;;;;5032722;28;20205;-68
2022/02/05 13:12:00;;;;;;;0.40;0.40;;;5.60;78.50;;;;;;5033482;28;20533;-68
2022/02/05 13:14:37;;;;;;;0.40;0.40;;;5.40;77.60;;;;;;5036536;28;20193;-67
2022/02/05 13:17:05;;;;;;;0.40;0.40;;;5.40;79.70;;;;;;5036338;28;20175;-67
2022/02/05 13:19:51;;;;;;;0.40;0.40;;;5.30;81.90;;;;;;5035968;28;20201;-67
2022/02/05 13:26:06;;;;;;;0.40;0.40;;;5.20;82.70;;;;;;5036539;28;20193;-67
2022/02/05 13:36:15;;;;;;;0.32;0.32;;;4.90;84.00;;;;;;5036206;28;20192;-67
2022/02/05 13:41:29;;;;;;;0.40;0.40;;;4.80;82.80;;;;;;5036138;28;20186;-68
2022/02/05 13:43:57;;;;;;;0.40;0.40;;;4.70;83.00;;;;;;5035953;28;20163;-68
2022/02/05 13:46:23;;;;;;;0.40;0.40;;;4.80;83.50;;;;;;5035718;28;20173;-67
2022/02/05 13:48:48;;;;;;;0.30;0.30;;;4.80;83.40;;;;;;5035635;28;20206;-67
2022/02/05 13:51:16;;;;;;;0.40;0.40;;;4.90;82.50;;;;;;5035829;28;20195;-67
2022/02/05 13:53:57;;;;;;;0.40;0.40;;;4.90;83.20;;;;;;5035607;28;20171;-68
2022/02/05 13:56:23;;;;;;;0.30;0.30;;;4.70;84.40;;;;;;5035662;28;20182;-68
2022/02/05 13:58:49;;;;;;;0.40;0.40;;;4.90;83.00;;;;;;5035463;28;20196;-67
2022/02/05 14:01:35;;;;;;;0.40;0.40;;;4.90;83.10;;;;;;5035526;28;20202;-68
2022/02/05 14:04:23;;;;;;;0.40;0.40;;;4.90;84.20;;;;;;5035404;28;20213;-69
2022/02/05 14:06:57;;;;;;;0.40;0.40;;;4.90;85.70;;;;;;5035412;28;20147;-67
2022/02/05 14:09:25;;;;;;;0.32;0.32;;;4.80;85.80;;;;;;5035199;28;20171;-66
2022/02/05 14:11:52;;;;;;;0.30;0.30;;;4.50;86.20;;;;;;5035228;28;20175;-67
2022/02/05 14:14:33;;;;;;;0.40;0.40;;;4.20;86.60;;;;;;5035384;28;20202;-67
2022/02/05 14:16:58;;;;;;;0.30;0.30;;;4.10;89.20;;;;;;5035205;28;20171;-66
2022/02/05 14:19:27;;;;;;;0.30;0.30;;;4.10;89.20;;;;;;5034905;28;20567;-66
2022/02/05 14:21:54;;;;;;;0.40;0.40;;;4.30;89.90;;;;;;5035242;28;20400;-67
2022/02/05 14:24:25;;;;;;;0.30;0.30;;;4.50;90.00;;;;;;5034919;28;20183;-65
2022/02/05 14:27:05;;;;;;;0.40;0.40;;;4.60;88.80;;;;;;5034963;28;20171;-67
2022/02/05 14:29:41;;;;;;;0.30;0.30;;;4.60;89.00;;;;;;5034707;28;20186;-67
2022/02/05 14:32:21;;;;;;;0.40;0.40;;;4.70;88.60;;;;;;5035035;28;20594;-67
2022/02/05 14:35:05;;;;;;;0.30;0.30;;;4.80;88.50;;;;;;5034726;28;20220;-66
2022/02/05 14:40:30;;;;;;;0.32;0.32;;;4.90;87.40;;;;;;5034650;28;20286;-66
2022/02/05 14:42:56;;;;;;;0.30;0.30;;;4.70;86.00;;;;;;5034896;28;20170;-66
2022/02/05 14:45:21;;;;;;;0.30;0.30;;;4.80;86.10;;;;;;5034565;28;20789;-67
2022/02/05 14:47:47;;;;;;;0.40;0.40;;;4.80;86.20;;;;;;5034634;28;20250;-67
2022/02/05 14:50:13;;;;;;;0.40;0.40;;;4.80;87.80;;;;;;5033159;28;20524;-66
2022/02/05 14:52:39;;;;;;;0.40;0.40;;;4.70;88.90;;;;;;5033347;28;20659;-66
2022/02/05 14:55:05;;;;;;;0.33;0.33;;;4.60;89.60;;;;;;5034365;28;20199;-67
2022/02/05 14:57:31;;;;;;;0.38;0.38;;;4.50;90.10;;;;;;5034336;28;20183;-66
2022/02/05 14:59:56;;;;;;;0.30;0.30;;;4.50;90.60;;;;;;5034180;28;20252;-66
2022/02/05 15:02:22;;;;;;;0.40;0.40;;;4.40;91.10;;;;;;5034295;28;20646;-67
2022/02/05 15:04:48;;;;;;;0.40;0.40;;;4.50;91.50;;;;;;5034323;28;20183;-67
2022/02/05 15:07:17;;;;;;;0.38;0.38;;;4.50;91.50;;;;;;5034258;28;20221;-67
2022/02/05 15:09:43;;;;;;;0.30;0.30;;;4.50;91.40;;;;;;5033970;28;20174;-67
2022/02/05 15:12:09;;;;;;;0.40;0.40;;;4.50;91.30;;;;;;5034083;28;20647;-66
2022/02/05 15:14:35;;;;;;;0.40;0.40;;;4.50;91.20;;;;;;5034251;28;20748;-66
2022/02/05 15:17:03;;;;;;;0.30;0.30;;;4.40;91.30;;;;;;5034091;28;20266;-66
2022/02/05 15:19:28;;;;;;;0.40;0.40;;;4.30;91.40;;;;;;5033775;28;20655;-67
2022/02/05 15:21:54;;;;;;;0.40;0.40;;;4.20;91.60;;;;;;5034048;28;20198;-66
2022/02/05 15:24:19;;;;;;;0.30;0.30;;;4.10;91.40;;;;;;5033835;28;20243;-66
2022/02/05 15:26:45;;;;;;;0.30;0.30;;;4.10;91.70;;;;;;5033823;28;20190;-66
2022/02/05 15:29:12;;;;;;;0.40;0.40;;;4.10;92.10;;;;;;5033651;28;20249;-66
2022/02/05 15:31:40;;;;;;;0.40;0.40;;;4.00;92.20;;;;;;5034022;28;20161;-67
2022/02/05 15:34:07;;;;;;;0.40;0.40;;;4.00;92.30;;;;;;5033509;28;20209;-67
2022/02/05 15:44:15;;;;;;;0.30;0.30;;;3.80;92.40;;;;;;5033817;28;20208;-66
2022/02/05 15:46:41;;;;;;;0.40;0.40;;;3.70;92.50;;;;;;5033609;28;20171;-67
2022/02/05 15:49:06;;;;;;;0.30;0.30;;;3.70;92.60;;;;;;5033480;28;20177;-66
2022/02/05 15:51:32;;;;;;;0.30;0.30;;;3.70;92.50;;;;;;5033210;28;20199;-66
2022/02/05 15:54:02;;;;;;;0.30;0.30;;;3.70;92.60;;;;;;5033647;28;20167;-66
2022/02/05 15:58:56;;;;;;;0.30;0.30;;;3.70;92.80;;;;;;5033149;28;20174;-66
2022/02/05 16:01:22;;;;;;;0.30;0.30;;;3.70;92.90;;;;;;5033376;28;20200;-66
2022/02/05 16:03:47;;;;;;;0.30;0.30;;;3.70;93.10;;;;;;5033547;28;20188;-66
2022/02/05 16:06:13;;;;;;;0.30;0.30;;;3.60;93.30;;;;;;5033381;28;20198;-67
2022/02/05 16:08:39;;;;;;;0.30;0.30;;;3.50;93.30;;;;;;5033194;28;20219;-66